createdAt,value
2022-11-09T00:01:46.567Z,1.00
2022-11-09T00:04:16.516Z,1.20
2022-11-09T00:06:45.258Z,1.25
2022-11-09T00:09:14.428Z,1.40
2022-11-09T00:11:43.038Z,1.02
2022-11-09T00:14:15.893Z,1.30
2022-11-09T00:16:44.439Z,1.15
2022-11-09T00:19:14.736Z,1.40
2022-11-09T00:21:45.458Z,1.58
2022-11-09T00:24:14.882Z,1.20
2022-11-09T00:26:43.395Z,1.40
2022-11-09T00:29:11.832Z,1.42
2022-11-09T00:31:40.029Z,1.38
2022-11-09T00:34:08.903Z,1.33
2022-11-09T00:36:37.120Z,1.50
2022-11-09T00:39:06.674Z,1.48
2022-11-09T00:41:34.935Z,1.45
2022-11-09T00:44:03.312Z,1.80
2022-11-09T00:46:31.953Z,1.35
2022-11-09T00:49:00.857Z,1.50
2022-11-09T00:51:29.485Z,1.52
2022-11-09T00:53:59.167Z,1.52
2022-11-09T00:56:28.892Z,1.77
2022-11-09T00:58:57.493Z,1.80
2022-11-09T01:01:25.965Z,1.55
2022-11-09T01:03:55.944Z,1.48
2022-11-09T01:06:26.757Z,1.52
2022-11-09T01:08:55.836Z,1.60
2022-11-09T01:11:25.172Z,1.95
2022-11-09T01:13:57.532Z,2.17
2022-11-09T01:16:25.922Z,1.85
2022-11-09T01:18:55.968Z,1.73
2022-11-09T01:21:27.136Z,1.63
2022-11-09T01:23:58.251Z,1.98
2022-11-09T01:26:29.184Z,1.67
2022-11-09T01:28:58.709Z,1.77
2022-11-09T01:31:27.166Z,2.00
2022-11-09T01:33:56.051Z,2.58
2022-11-09T01:36:25.928Z,1.70
2022-11-09T01:38:54.160Z,1.98
2022-11-09T01:41:25.787Z,1.70
2022-11-09T01:44:22.568Z,1.73
2022-11-09T01:46:55.517Z,2.20
2022-11-09T01:49:40.809Z,1.98
2022-11-09T01:52:16.366Z,1.70
2022-11-09T01:54:49.164Z,1.88
2022-11-09T01:57:24.585Z,2.72
2022-11-09T02:00:00.848Z,2.05
2022-11-09T02:02:29.642Z,2.10
2022-11-09T02:05:02.465Z,1.55
2022-11-09T02:07:31.235Z,1.90
2022-11-09T02:10:06.937Z,1.80
2022-11-09T02:12:36.826Z,2.30
2022-11-09T02:15:12.402Z,1.52
2022-11-09T02:17:43.104Z,1.85
2022-11-09T02:20:14.600Z,1.90
2022-11-09T02:22:43.441Z,2.05
2022-11-09T02:25:13.846Z,1.70
2022-11-09T02:27:44.198Z,1.42
2022-11-09T02:30:14.729Z,1.75
2022-11-09T02:32:43.148Z,1.67
2022-11-09T02:35:13.518Z,1.50
2022-11-09T02:37:49.600Z,1.73
2022-11-09T02:40:25.630Z,1.75
2022-11-09T02:42:55.417Z,1.95
2022-11-09T02:45:23.824Z,1.40
2022-11-09T02:47:52.046Z,1.73
2022-11-09T02:50:21.608Z,1.90
2022-11-09T02:52:49.767Z,1.98
2022-11-09T02:55:20.543Z,2.08
2022-11-09T02:57:48.761Z,1.95
2022-11-09T03:00:18.145Z,1.70
2022-11-09T03:02:46.514Z,1.90
2022-11-09T03:05:16.126Z,1.75
2022-11-09T03:07:47.575Z,1.58
2022-11-09T03:10:16.132Z,1.70
2022-11-09T03:12:44.637Z,1.40
2022-11-09T03:15:15.601Z,1.90
2022-11-09T03:17:46.804Z,2.00
2022-11-09T03:20:16.864Z,1.98
2022-11-09T03:22:46.747Z,1.70
2022-11-09T03:25:15.373Z,1.85
2022-11-09T03:27:43.834Z,1.63
2022-11-09T03:30:13.799Z,1.85
2022-11-09T03:32:46.800Z,2.00
2022-11-09T03:35:18.134Z,1.55
2022-11-09T03:37:47.750Z,1.80
2022-11-09T03:40:16.242Z,1.90
2022-11-09T03:42:46.185Z,1.85
2022-11-09T03:45:15.407Z,1.65
2022-11-09T03:47:44.468Z,1.80
2022-11-09T03:50:14.544Z,2.10
2022-11-09T03:52:47.369Z,2.10
2022-11-09T03:55:16.199Z,2.13
2022-11-09T03:57:47.921Z,1.77
2022-11-09T04:00:19.151Z,2.07
2022-11-09T04:02:49.097Z,1.92
2022-11-09T04:05:17.739Z,2.33
2022-11-09T04:07:51.281Z,1.77
2022-11-09T04:10:20.664Z,2.30
2022-11-09T04:12:49.072Z,1.95
2022-11-09T04:15:18.132Z,2.13
2022-11-09T04:17:46.255Z,2.17
2022-11-09T04:20:14.793Z,2.20
2022-11-09T04:22:42.923Z,1.90
2022-11-09T04:25:12.502Z,2.70
2022-11-09T04:27:40.656Z,2.00
2022-11-09T04:30:10.555Z,1.92
2022-11-09T04:32:38.847Z,2.13
2022-11-09T04:35:08.655Z,2.13
2022-11-09T04:37:36.911Z,2.15
2022-11-09T04:40:05.997Z,1.95
2022-11-09T04:42:35.612Z,1.80
2022-11-09T04:45:03.821Z,1.88
2022-11-09T04:47:32.041Z,2.20
2022-11-09T04:50:00.215Z,2.15
2022-11-09T04:52:28.443Z,1.73
2022-11-09T04:54:56.627Z,2.08
2022-11-09T04:57:24.909Z,1.95
2022-11-09T04:59:54.504Z,2.33
2022-11-09T05:02:22.955Z,2.40
2022-11-09T05:04:51.106Z,2.45
2022-11-09T05:07:19.358Z,2.25
2022-11-09T05:09:47.656Z,2.00
2022-11-09T05:12:15.935Z,2.63
2022-11-09T05:14:44.142Z,2.35
2022-11-09T05:17:13.710Z,2.47
2022-11-09T05:19:41.898Z,2.45
2022-11-09T05:22:27.919Z,2.72
2022-11-09T05:24:56.234Z,2.33
2022-11-09T05:27:24.395Z,2.53
2022-11-09T05:29:52.507Z,2.70
2022-11-09T05:32:22.145Z,4.35
2022-11-09T05:34:50.289Z,2.65
2022-11-09T05:37:22.146Z,2.75
2022-11-09T05:39:50.416Z,2.35
2022-11-09T05:42:18.799Z,2.10
2022-11-09T05:44:46.987Z,1.80
2022-11-09T05:47:15.417Z,2.10
2022-11-09T05:49:44.963Z,2.30
2022-11-09T05:52:13.196Z,2.30
2022-11-09T05:54:41.887Z,2.22
2022-11-09T05:57:10.066Z,1.90
2022-11-09T05:59:38.357Z,2.47
2022-11-09T06:02:06.618Z,2.83
2022-11-09T06:04:34.915Z,3.53
2022-11-09T06:07:04.969Z,4.00
2022-11-09T06:09:33.578Z,3.90
2022-11-09T06:12:02.219Z,3.90
2022-11-09T06:14:30.456Z,3.53
2022-11-09T06:16:59.978Z,3.05
2022-11-09T06:19:28.191Z,2.50
2022-11-09T06:21:56.418Z,1.80
2022-11-09T06:24:26.023Z,1.60
2022-11-09T06:26:54.259Z,2.53
2022-11-09T06:29:22.504Z,1.85
2022-11-09T06:31:51.373Z,1.80
2022-11-09T06:34:19.859Z,1.80
2022-11-09T06:36:48.025Z,2.03
2022-11-09T06:39:16.160Z,1.75
2022-11-09T06:41:47.633Z,2.88
2022-11-09T06:44:16.284Z,2.50
2022-11-09T06:46:44.446Z,2.65
2022-11-09T06:49:13.725Z,2.72
2022-11-09T06:51:41.943Z,2.70
2022-11-09T06:54:10.127Z,3.40
2022-11-09T06:56:38.404Z,3.45
2022-11-09T06:59:08.808Z,3.22
2022-11-09T07:01:37.622Z,3.75
2022-11-09T07:04:06.938Z,4.57
2022-11-09T07:06:35.235Z,3.65
2022-11-09T07:09:03.402Z,3.20
2022-11-09T07:11:31.593Z,4.82
2022-11-09T07:14:01.239Z,4.10
2022-11-09T07:16:31.731Z,3.80
2022-11-09T07:19:00.481Z,3.00
2022-11-09T07:21:28.821Z,2.80
2022-11-09T07:23:56.953Z,3.20
2022-11-09T07:26:25.184Z,3.63
2022-11-09T07:28:53.350Z,3.50
2022-11-09T07:31:21.810Z,4.38
2022-11-09T07:33:52.323Z,3.50
2022-11-09T07:36:21.721Z,3.15
2022-11-09T07:38:50.393Z,2.88
2022-11-09T07:41:18.691Z,2.75
2022-11-09T07:43:47.139Z,2.95
2022-11-09T07:46:15.285Z,2.03
2022-11-09T07:48:44.762Z,2.38
2022-11-09T07:51:14.452Z,2.60
2022-11-09T07:53:43.749Z,2.28
2022-11-09T07:56:11.998Z,2.63
2022-11-09T07:58:40.318Z,2.08
2022-11-09T08:01:10.112Z,2.10
2022-11-09T08:03:38.959Z,2.25
2022-11-09T08:06:07.867Z,2.50
2022-11-09T08:08:39.337Z,1.80
2022-11-09T08:11:07.886Z,2.42
2022-11-09T08:13:36.152Z,2.40
2022-11-09T08:16:06.288Z,2.50
2022-11-09T08:18:34.880Z,2.92
2022-11-09T08:21:04.205Z,2.97
2022-11-09T08:23:33.071Z,2.70
2022-11-09T08:26:05.888Z,2.40
2022-11-09T08:28:35.030Z,2.33
2022-11-09T08:31:06.549Z,2.47
2022-11-09T08:33:39.527Z,1.63
2022-11-09T08:36:13.081Z,2.00
2022-11-09T08:38:42.026Z,1.40
2022-11-09T08:41:13.807Z,2.10
2022-11-09T08:43:42.591Z,2.25
2022-11-09T08:46:10.902Z,2.17
2022-11-09T08:48:39.263Z,2.00
2022-11-09T08:51:07.777Z,1.98
2022-11-09T08:53:36.033Z,2.08
2022-11-09T08:56:08.082Z,1.70
2022-11-09T08:58:38.099Z,2.25
2022-11-09T09:01:15.339Z,2.15
2022-11-09T09:03:45.574Z,2.28
2022-11-09T09:06:13.864Z,2.08
2022-11-09T09:08:42.548Z,2.20
2022-11-09T09:11:10.773Z,1.70
2022-11-09T09:13:43.545Z,1.52
2022-11-09T09:16:14.070Z,1.40
2022-11-09T09:18:42.787Z,2.75
2022-11-09T09:21:13.380Z,2.00
2022-11-09T09:23:41.873Z,2.55
2022-11-09T09:26:10.106Z,2.28
2022-11-09T09:28:40.380Z,2.10
2022-11-09T09:31:11.113Z,2.08
2022-11-09T09:33:41.601Z,2.53
2022-11-09T09:36:18.068Z,1.95
2022-11-09T09:38:46.548Z,2.42
2022-11-09T09:41:24.160Z,2.20
2022-11-09T09:43:59.048Z,1.98
2022-11-09T09:46:33.143Z,1.98
2022-11-09T09:49:07.751Z,2.72
2022-11-09T09:51:42.016Z,2.22
2022-11-09T09:54:19.714Z,2.20
2022-11-09T09:56:51.792Z,2.47
2022-11-09T09:59:27.213Z,2.50
2022-11-09T10:01:57.535Z,2.60
2022-11-09T10:04:33.482Z,2.38
2022-11-09T10:07:13.889Z,2.33
2022-11-09T10:10:21.338Z,2.25
2022-11-09T10:13:21.910Z,2.60
2022-11-09T10:15:56.652Z,2.47
2022-11-09T10:18:40.066Z,2.25
2022-11-09T10:21:30.568Z,2.00
2022-11-09T10:24:21.648Z,2.30
2022-11-09T10:26:52.556Z,1.50
2022-11-09T10:29:24.992Z,1.83
2022-11-09T10:31:58.598Z,2.03
2022-11-09T10:34:33.862Z,2.00
2022-11-09T10:37:11.955Z,2.47
2022-11-09T10:39:48.053Z,2.40
2022-11-09T10:42:35.152Z,2.10
2022-11-09T10:45:30.951Z,2.28
2022-11-09T10:48:33.461Z,2.22
2022-11-09T10:51:39.526Z,1.97
2022-11-09T10:54:28.664Z,2.72
2022-11-09T10:57:19.826Z,2.50
2022-11-09T11:00:15.878Z,2.50
2022-11-09T11:03:12.996Z,2.00
2022-11-09T11:06:03.300Z,2.80
2022-11-09T11:08:54.308Z,3.10
2022-11-09T11:11:42.855Z,2.53
2022-11-09T11:14:36.322Z,2.53
2022-11-09T11:17:27.255Z,1.90
2022-11-09T11:20:36.284Z,2.70
2022-11-09T11:23:26.957Z,2.63
2022-11-09T11:26:31.373Z,2.70
2022-11-09T11:29:42.279Z,2.58
2022-11-09T11:32:29.459Z,1.80
2022-11-09T11:35:23.874Z,2.83
2022-11-09T11:38:23.704Z,2.50
2022-11-09T11:41:42.751Z,2.35
2022-11-09T11:44:59.425Z,2.13
2022-11-09T11:48:23.949Z,1.90
2022-11-09T11:51:19.123Z,1.88
2022-11-09T11:54:20.964Z,1.77
2022-11-09T11:57:19.235Z,1.88
2022-11-09T12:00:13.372Z,2.30
2022-11-09T12:03:31.652Z,1.90
2022-11-09T12:06:55.459Z,2.70
2022-11-09T12:10:00.922Z,2.08
2022-11-09T12:13:01.258Z,2.03
2022-11-09T12:15:58.810Z,1.67
2022-11-09T12:19:02.496Z,1.90
2022-11-09T12:22:04.190Z,2.55
2022-11-09T12:25:01.138Z,2.30
2022-11-09T12:28:07.748Z,1.90
2022-11-09T12:31:09.555Z,2.45
2022-11-09T12:34:02.529Z,2.53
2022-11-09T12:36:56.521Z,2.80
2022-11-09T12:39:47.794Z,2.28
2022-11-09T12:42:42.987Z,2.92
2022-11-09T12:45:35.427Z,2.28
2022-11-09T12:48:26.667Z,2.10
2022-11-09T12:51:14.972Z,2.30
2022-11-09T12:54:11.141Z,2.03
2022-11-09T12:57:02.381Z,2.85
2022-11-09T12:59:51.492Z,2.33
2022-11-09T13:02:54.040Z,2.60
2022-11-09T13:05:43.059Z,2.20
2022-11-09T13:08:31.987Z,2.95
2022-11-09T13:11:29.220Z,2.55
2022-11-09T13:14:35.527Z,2.42
2022-11-09T13:18:01.516Z,2.28
2022-11-09T13:20:57.697Z,1.92
2022-11-09T13:24:04.042Z,2.35
2022-11-09T13:27:00.157Z,2.13
2022-11-09T13:29:56.385Z,2.22
2022-11-09T13:33:25.736Z,2.25
2022-11-09T13:36:21.075Z,2.03
2022-11-09T13:39:33.924Z,2.60
2022-11-09T13:42:33.519Z,2.23
2022-11-09T13:45:31.215Z,2.63
2022-11-09T13:48:43.148Z,2.35
2022-11-09T13:51:49.196Z,2.53
2022-11-09T13:54:39.509Z,2.83
2022-11-09T13:57:28.268Z,1.77
2022-11-09T14:00:23.217Z,1.80
2022-11-09T14:03:21.462Z,2.28
2022-11-09T14:06:13.684Z,1.95
2022-11-09T14:09:02.099Z,2.00
2022-11-09T14:12:14.942Z,2.63
2022-11-09T14:15:23.009Z,2.20
2022-11-09T14:18:29.586Z,2.65
2022-11-09T14:21:33.173Z,2.67
2022-11-09T14:24:24.009Z,2.28
2022-11-09T14:27:18.360Z,1.70
2022-11-09T14:30:20.496Z,1.65
2022-11-09T14:33:24.417Z,1.73
2022-11-09T14:36:14.299Z,2.63
2022-11-09T14:39:06.283Z,2.45
2022-11-09T14:41:53.563Z,2.50
2022-11-09T14:44:46.199Z,2.20
2022-11-09T14:47:38.071Z,2.78
2022-11-09T14:50:28.892Z,2.40
2022-11-09T14:53:22.227Z,2.97
2022-11-09T14:56:17.418Z,2.67
2022-11-09T14:59:07.307Z,2.30
2022-11-09T15:02:05.587Z,2.35
2022-11-09T15:04:57.200Z,2.58
2022-11-09T15:07:48.375Z,2.70
2022-11-09T15:10:36.210Z,2.33
2022-11-09T15:13:34.144Z,2.08
2022-11-09T15:16:25.077Z,3.03
2022-11-09T15:19:29.767Z,2.58
2022-11-09T15:22:54.410Z,2.53
2022-11-09T15:25:56.374Z,1.92
2022-11-09T15:28:49.362Z,2.40
2022-11-09T15:31:36.620Z,2.45
2022-11-09T15:34:26.701Z,2.40
2022-11-09T15:37:29.470Z,2.90
2022-11-09T15:40:21.649Z,2.77
2022-11-09T15:43:08.462Z,2.70
2022-11-09T15:46:00.000Z,2.65
2022-11-09T15:48:47.121Z,2.67
2022-11-09T15:51:34.310Z,2.78
2022-11-09T15:54:21.858Z,2.25
2022-11-09T15:57:12.195Z,2.42
2022-11-09T16:00:01.535Z,2.30
2022-11-09T16:02:49.906Z,2.80
2022-11-09T16:05:37.456Z,2.08
2022-11-09T16:08:24.738Z,2.35
2022-11-09T16:11:11.946Z,2.60
2022-11-09T16:14:01.379Z,2.88
2022-11-09T16:16:48.592Z,3.72
2022-11-09T16:19:39.499Z,3.20
2022-11-09T16:22:31.513Z,2.72
2022-11-09T16:25:19.403Z,2.90
2022-11-09T16:28:06.635Z,3.00
2022-11-09T16:30:53.563Z,2.20
2022-11-09T16:33:41.270Z,2.50
2022-11-09T16:36:29.919Z,2.60
2022-11-09T16:39:17.962Z,3.08
2022-11-09T16:42:09.426Z,2.90
2022-11-09T16:44:59.944Z,3.95
2022-11-09T16:47:51.846Z,3.28
2022-11-09T16:50:38.473Z,3.70
2022-11-09T16:53:27.239Z,3.25
2022-11-09T16:56:14.174Z,3.03
2022-11-09T16:59:02.272Z,3.05
2022-11-09T17:01:52.785Z,3.03
2022-11-09T17:04:39.573Z,2.90
2022-11-09T17:07:26.830Z,3.10
2022-11-09T17:10:15.976Z,2.85
2022-11-09T17:13:02.806Z,3.25
2022-11-09T17:15:53.309Z,2.63
2022-11-09T17:18:42.081Z,2.50
2022-11-09T17:21:30.310Z,3.17
2022-11-09T17:24:17.872Z,3.00
2022-11-09T17:27:06.106Z,2.70
2022-11-09T17:29:53.091Z,3.40
2022-11-09T17:32:41.643Z,2.75
2022-11-09T17:35:36.379Z,2.53
2022-11-09T17:38:23.484Z,2.42
2022-11-09T17:41:12.834Z,2.63
2022-11-09T17:44:03.171Z,2.88
2022-11-09T17:46:49.679Z,3.15
2022-11-09T17:49:36.310Z,2.20
2022-11-09T17:52:23.091Z,3.00
2022-11-09T17:55:10.156Z,2.30
2022-11-09T17:57:57.230Z,2.05
2022-11-09T18:00:46.143Z,2.15
2022-11-09T18:03:33.597Z,2.90
2022-11-09T18:06:23.646Z,2.42
2022-11-09T18:09:39.859Z,3.35
2022-11-09T18:12:17.938Z,2.50
2022-11-09T18:15:05.984Z,2.40
2022-11-09T18:17:55.223Z,2.75
2022-11-09T18:20:42.172Z,3.13
2022-11-09T18:23:29.448Z,2.58
2022-11-09T18:26:16.659Z,2.92
2022-11-09T18:29:03.231Z,2.75
2022-11-09T18:31:50.147Z,2.85
2022-11-09T18:34:38.859Z,2.60
2022-11-09T18:37:25.642Z,3.15
2022-11-09T18:40:13.971Z,3.30
2022-11-09T18:43:01.165Z,3.28
2022-11-09T18:45:56.863Z,4.10
2022-11-09T18:48:43.733Z,3.53
2022-11-09T18:51:32.052Z,4.72
2022-11-09T18:54:20.081Z,4.00
2022-11-09T18:57:06.659Z,2.97
2022-11-09T18:59:53.568Z,3.55
2022-11-09T19:02:40.471Z,3.70
2022-11-09T19:05:27.387Z,3.90
2022-11-09T19:08:16.269Z,3.65
2022-11-09T19:11:07.279Z,3.33
2022-11-09T19:13:55.311Z,3.20
2022-11-09T19:16:42.024Z,2.67
2022-11-09T19:19:29.182Z,3.65
2022-11-09T19:22:19.079Z,3.05
2022-11-09T19:25:08.682Z,3.28
2022-11-09T19:27:55.343Z,2.92
2022-11-09T19:30:42.416Z,3.63
2022-11-09T19:33:29.177Z,3.58
2022-11-09T19:36:30.156Z,3.13
2022-11-09T19:39:18.516Z,3.85
2022-11-09T19:42:06.968Z,3.70
2022-11-09T19:44:56.648Z,3.38
2022-11-09T19:47:44.800Z,3.45
2022-11-09T19:50:31.641Z,3.75
2022-11-09T19:53:18.879Z,2.90
2022-11-09T19:56:09.494Z,2.50
2022-11-09T19:59:00.246Z,3.05
2022-11-09T20:01:48.108Z,3.22
2022-11-09T20:04:34.680Z,3.10
2022-11-09T20:07:22.415Z,2.95
2022-11-09T20:10:10.381Z,2.92
2022-11-09T20:12:56.865Z,3.47
2022-11-09T20:15:45.967Z,3.08
2022-11-09T20:18:36.111Z,3.28
2022-11-09T20:21:24.650Z,3.17
2022-11-09T20:24:12.489Z,3.63
2022-11-09T20:26:59.260Z,3.92
2022-11-09T20:29:46.174Z,3.83
2022-11-09T20:32:34.237Z,2.47
2022-11-09T20:35:21.092Z,2.50
2022-11-09T20:38:10.277Z,2.60
2022-11-09T20:40:58.784Z,3.50
2022-11-09T20:43:46.258Z,2.72
2022-11-09T20:46:36.497Z,2.63
2022-11-09T20:49:25.064Z,2.75
2022-11-09T20:52:11.963Z,2.90
2022-11-09T20:54:58.719Z,2.42
2022-11-09T20:57:45.781Z,3.03
2022-11-09T21:00:32.755Z,2.45
2022-11-09T21:03:21.174Z,2.40
2022-11-09T21:06:11.259Z,2.97
2022-11-09T21:09:00.818Z,3.17
2022-11-09T21:12:05.488Z,2.20
2022-11-09T21:14:54.340Z,2.15
2022-11-09T21:17:41.739Z,2.42
2022-11-09T21:20:28.901Z,2.83
2022-11-09T21:23:34.373Z,2.30
2022-11-09T21:26:38.930Z,2.33
2022-11-09T21:29:44.011Z,2.10
2022-11-09T21:32:33.203Z,2.42
2022-11-09T21:35:20.046Z,2.08
2022-11-09T21:38:06.831Z,3.25
2022-11-09T21:40:55.135Z,2.63
2022-11-09T21:43:42.048Z,2.70
2022-11-09T21:46:28.906Z,2.85
2022-11-09T21:49:16.373Z,2.28
2022-11-09T21:52:04.444Z,2.28
2022-11-09T21:54:51.012Z,2.30
2022-11-09T21:57:40.550Z,2.53
2022-11-09T22:00:28.230Z,2.75
2022-11-09T22:03:14.989Z,2.40
2022-11-09T22:06:02.459Z,2.60
2022-11-09T22:08:51.399Z,2.90
2022-11-09T22:11:57.951Z,3.15
2022-11-09T22:15:04.379Z,2.72
2022-11-09T22:17:54.566Z,2.40
2022-11-09T22:20:55.576Z,2.30
2022-11-09T22:23:42.343Z,2.65
2022-11-09T22:26:30.639Z,2.47
2022-11-09T22:29:17.602Z,2.40
2022-11-09T22:32:06.755Z,2.40
2022-11-09T22:34:53.817Z,2.65
2022-11-09T22:37:40.917Z,1.90
2022-11-09T22:40:28.243Z,3.17
2022-11-09T22:43:15.290Z,2.50
2022-11-09T22:46:05.049Z,3.53
2022-11-09T22:48:53.303Z,2.83
2022-11-09T22:51:40.092Z,2.85
2022-11-09T22:54:27.838Z,3.15
2022-11-09T22:57:14.516Z,3.10
2022-11-09T23:00:01.356Z,3.42
2022-11-09T23:02:48.512Z,3.00
2022-11-09T23:05:37.151Z,2.80
2022-11-09T23:08:24.367Z,2.58
2022-11-09T23:11:14.970Z,2.95
2022-11-09T23:14:02.026Z,2.70
2022-11-09T23:16:49.062Z,3.33
2022-11-09T23:19:35.201Z,2.72
2022-11-09T23:22:23.664Z,2.90
2022-11-09T23:25:28.777Z,2.60
2022-11-09T23:28:15.786Z,2.60
2022-11-09T23:31:06.989Z,2.67
2022-11-09T23:33:56.452Z,3.20
2022-11-09T23:36:44.610Z,3.03
2022-11-09T23:39:33.888Z,2.15
2022-11-09T23:42:21.116Z,2.60
2022-11-09T23:45:09.206Z,3.67
2022-11-09T23:47:56.305Z,2.83
2022-11-09T23:50:43.884Z,2.63
2022-11-09T23:53:32.086Z,3.08
2022-11-09T23:56:21.653Z,2.95
2022-11-09T23:59:09.118Z,3.42
